createdAt,value
2023-02-10T00:01:10.558Z,26.00
2023-02-10T00:03:38.552Z,30.00
2023-02-10T00:06:07.152Z,29.05
2023-02-10T00:08:35.057Z,35.58
2023-02-10T00:11:09.189Z,31.98
2023-02-10T00:16:05.438Z,30.90
2023-02-10T00:18:33.807Z,29.10
2023-02-10T00:21:10.416Z,29.63
2023-02-10T00:23:37.958Z,28.33
2023-02-10T00:26:06.766Z,26.92
2023-02-10T00:28:35.571Z,27.40
2023-02-10T00:31:07.452Z,29.33
2023-02-10T00:33:35.042Z,32.00
2023-02-10T00:36:11.209Z,47.75
2023-02-10T00:38:39.419Z,31.40
2023-02-10T00:41:11.937Z,40.88
2023-02-10T00:43:43.488Z,28.33
2023-02-10T00:46:15.960Z,32.03
2023-02-10T00:48:44.614Z,32.08
2023-02-10T00:51:12.733Z,28.45
2023-02-10T00:53:40.102Z,27.42
2023-02-10T00:56:07.853Z,30.23
2023-02-10T00:58:35.772Z,28.73
2023-02-10T01:01:03.853Z,30.00
2023-02-10T01:03:31.208Z,28.05
2023-02-10T01:05:58.651Z,30.20
2023-02-10T01:08:25.842Z,28.98
2023-02-10T01:11:07.710Z,29.80
2023-02-10T01:13:36.326Z,30.38
2023-02-10T01:16:14.416Z,27.92
2023-02-10T01:18:42.809Z,30.58
2023-02-10T01:21:14.913Z,28.20
2023-02-10T01:23:44.209Z,28.50
2023-02-10T01:26:12.466Z,28.25
2023-02-10T01:28:41.499Z,30.95
2023-02-10T01:31:15.383Z,31.00
2023-02-10T01:33:43.047Z,35.03
2023-02-10T01:36:13.311Z,27.92
2023-02-10T01:38:41.165Z,33.15
2023-02-10T01:41:09.276Z,28.88
2023-02-10T01:44:02.774Z,29.20
2023-02-10T01:46:31.857Z,30.52
2023-02-10T01:49:04.954Z,32.05
2023-02-10T01:51:39.284Z,38.47
2023-02-10T01:54:14.018Z,33.63
2023-02-10T01:56:42.701Z,32.38
2023-02-10T01:59:10.588Z,31.30
2023-02-10T02:01:38.000Z,37.70
2023-02-10T02:04:05.405Z,32.63
2023-02-10T02:06:35.411Z,47.13
2023-02-10T02:09:03.551Z,36.65
2023-02-10T02:11:46.458Z,34.00
2023-02-10T02:14:26.175Z,37.13
2023-02-10T02:17:03.244Z,46.45
2023-02-10T02:20:22.970Z,41.00
2023-02-10T02:23:23.738Z,38.00
2023-02-10T02:25:57.162Z,34.42
2023-02-10T02:28:55.938Z,34.20
2023-02-10T02:31:52.510Z,34.08
2023-02-10T02:34:40.274Z,33.10
2023-02-10T02:37:26.199Z,34.90
2023-02-10T02:39:56.684Z,31.73
2023-02-10T02:42:25.257Z,41.33
2023-02-10T02:44:56.943Z,43.15
2023-02-10T02:47:33.696Z,29.95
2023-02-10T02:50:18.169Z,31.27
2023-02-10T02:52:58.813Z,31.15
2023-02-10T02:55:50.282Z,37.30
2023-02-10T02:58:42.223Z,34.85
2023-02-10T03:01:36.601Z,35.58
2023-02-10T03:04:04.812Z,33.95
2023-02-10T03:06:34.390Z,31.70
2023-02-10T03:09:02.004Z,33.67
2023-02-10T03:11:29.225Z,40.00
2023-02-10T03:13:56.782Z,40.42
2023-02-10T03:16:23.980Z,35.00
2023-02-10T03:18:51.301Z,40.08
2023-02-10T03:21:18.811Z,32.97
2023-02-10T03:23:46.227Z,42.97
2023-02-10T03:26:13.808Z,39.63
2023-02-10T03:28:41.167Z,33.80
2023-02-10T03:31:09.173Z,33.70
2023-02-10T03:33:36.765Z,32.83
2023-02-10T03:36:04.190Z,36.70
2023-02-10T03:38:31.403Z,38.75
2023-02-10T03:40:58.641Z,39.13
2023-02-10T03:43:25.843Z,35.22
2023-02-10T03:45:53.023Z,34.97
2023-02-10T03:48:20.370Z,35.05
2023-02-10T03:50:49.144Z,32.60
2023-02-10T03:53:16.338Z,39.13
2023-02-10T03:55:43.485Z,42.15
2023-02-10T03:58:10.712Z,39.38
2023-02-10T04:00:37.962Z,41.03
2023-02-10T04:03:05.160Z,42.55
2023-02-10T04:05:32.390Z,42.83
2023-02-10T04:07:59.584Z,40.85
2023-02-10T04:10:27.010Z,44.75
2023-02-10T04:12:54.291Z,41.20
2023-02-10T04:15:21.524Z,39.75
2023-02-10T04:17:48.810Z,39.25
2023-02-10T04:20:16.936Z,40.70
2023-02-10T04:22:44.509Z,40.60
2023-02-10T04:25:12.044Z,46.83
2023-02-10T04:27:39.809Z,41.70
2023-02-10T04:30:07.697Z,44.42
2023-02-10T04:32:35.204Z,46.40
2023-02-10T04:35:03.216Z,47.38
2023-02-10T04:37:30.626Z,51.28
2023-02-10T04:39:57.767Z,52.08
2023-02-10T04:42:31.147Z,41.90
2023-02-10T04:44:59.734Z,41.08
2023-02-10T04:47:28.837Z,35.20
2023-02-10T04:49:56.904Z,45.20
2023-02-10T04:52:24.385Z,42.72
2023-02-10T04:54:51.724Z,45.67
2023-02-10T04:57:18.968Z,50.22
2023-02-10T04:59:46.501Z,66.53
2023-02-10T05:02:13.754Z,60.47
2023-02-10T05:04:42.015Z,62.25
2023-02-10T05:07:10.485Z,48.38
2023-02-10T05:09:37.664Z,44.67
2023-02-10T05:12:05.026Z,40.95
2023-02-10T05:14:32.263Z,43.55
2023-02-10T05:16:59.473Z,43.53
2023-02-10T05:19:26.755Z,42.58
2023-02-10T05:21:53.923Z,38.10
2023-02-10T05:24:21.176Z,44.13
2023-02-10T05:26:48.427Z,56.10
2023-02-10T05:29:15.801Z,56.65
2023-02-10T05:31:43.000Z,60.03
2023-02-10T05:34:10.500Z,57.35
2023-02-10T05:36:37.787Z,64.75
2023-02-10T05:39:23.691Z,107.80
2023-02-10T05:41:52.640Z,64.30
2023-02-10T05:44:20.309Z,60.70
2023-02-10T05:46:47.462Z,68.55
2023-02-10T05:49:14.864Z,65.43
2023-02-10T05:51:42.145Z,60.97
2023-02-10T05:54:10.181Z,59.92
2023-02-10T05:56:37.752Z,59.45
2023-02-10T05:59:05.806Z,51.17
2023-02-10T06:01:34.347Z,48.90
2023-02-10T06:04:01.656Z,47.58
2023-02-10T06:06:28.984Z,57.88
2023-02-10T06:08:56.299Z,55.95
2023-02-10T06:11:23.791Z,60.85
2023-02-10T06:13:51.045Z,58.20
2023-02-10T06:16:18.271Z,56.00
2023-02-10T06:18:48.667Z,60.50
2023-02-10T06:21:17.056Z,55.20
2023-02-10T06:23:44.746Z,59.53
2023-02-10T06:26:11.947Z,58.00
2023-02-10T06:28:39.198Z,64.25
2023-02-10T06:31:08.373Z,71.25
2023-02-10T06:33:36.465Z,101.93
2023-02-10T06:36:07.083Z,97.53
2023-02-10T06:38:35.127Z,94.45
2023-02-10T06:41:02.786Z,95.57
2023-02-10T06:43:30.302Z,127.35
2023-02-10T06:45:57.929Z,82.55
2023-02-10T06:48:25.376Z,70.57
2023-02-10T06:50:53.699Z,70.55
2023-02-10T06:53:21.447Z,62.20
2023-02-10T06:55:48.950Z,60.85
2023-02-10T06:58:17.515Z,65.20
2023-02-10T07:00:44.815Z,59.35
2023-02-10T07:03:15.516Z,55.38
2023-02-10T07:05:43.389Z,51.10
2023-02-10T07:08:10.620Z,49.80
2023-02-10T07:10:38.208Z,61.90
2023-02-10T07:13:05.608Z,64.05
2023-02-10T07:15:32.783Z,101.07
2023-02-10T07:17:59.950Z,95.65
2023-02-10T07:20:27.175Z,102.32
2023-02-10T07:22:54.519Z,105.03
2023-02-10T07:25:21.996Z,84.85
2023-02-10T07:27:49.275Z,96.63
2023-02-10T07:30:16.474Z,95.45
2023-02-10T07:32:45.407Z,80.47
2023-02-10T07:35:12.873Z,82.50
2023-02-10T07:37:40.581Z,76.93
2023-02-10T07:40:08.642Z,78.97
2023-02-10T07:42:37.025Z,63.83
2023-02-10T07:45:37.455Z,67.55
2023-02-10T07:48:04.654Z,73.05
2023-02-10T07:50:34.506Z,72.45
2023-02-10T07:53:02.378Z,58.88
2023-02-10T07:55:29.517Z,64.43
2023-02-10T07:57:56.865Z,61.92
2023-02-10T08:00:24.176Z,61.95
2023-02-10T08:02:51.402Z,61.45
2023-02-10T08:05:18.737Z,63.30
2023-02-10T08:07:46.034Z,64.28
2023-02-10T08:10:13.333Z,61.28
2023-02-10T08:12:41.674Z,66.30
2023-02-10T08:15:09.286Z,65.95
2023-02-10T08:17:37.973Z,63.28
2023-02-10T08:20:08.799Z,63.53
2023-02-10T08:22:36.171Z,64.32
2023-02-10T08:25:04.434Z,59.38
2023-02-10T08:27:31.857Z,64.35
2023-02-10T08:29:59.263Z,59.53
2023-02-10T08:32:26.699Z,65.20
2023-02-10T08:34:53.983Z,56.05
2023-02-10T08:37:22.432Z,57.83
2023-02-10T08:39:49.794Z,63.30
2023-02-10T08:42:17.243Z,65.57
2023-02-10T08:44:45.088Z,59.65
2023-02-10T08:47:15.644Z,51.38
2023-02-10T08:49:43.486Z,53.70
2023-02-10T08:52:10.992Z,57.15
2023-02-10T08:54:38.296Z,50.10
2023-02-10T08:57:05.919Z,52.97
2023-02-10T08:59:35.202Z,55.13
2023-02-10T09:02:02.897Z,48.35
2023-02-10T09:04:30.066Z,49.50
2023-02-10T09:06:57.368Z,48.40
2023-02-10T09:09:25.865Z,50.72
2023-02-10T09:11:54.660Z,53.90
2023-02-10T09:14:21.881Z,47.60
2023-02-10T09:16:51.615Z,46.85
2023-02-10T09:19:21.176Z,51.30
2023-02-10T09:21:48.460Z,44.97
2023-02-10T09:24:16.528Z,43.63
2023-02-10T09:26:44.952Z,43.22
2023-02-10T09:29:13.298Z,40.85
2023-02-10T09:31:40.773Z,40.83
2023-02-10T09:34:08.321Z,46.22
2023-02-10T09:36:35.636Z,47.63
2023-02-10T09:39:03.062Z,42.75
2023-02-10T09:41:36.136Z,44.97
2023-02-10T09:44:17.371Z,43.67
2023-02-10T09:46:56.794Z,41.17
2023-02-10T09:49:53.492Z,43.42
2023-02-10T09:52:42.760Z,39.40
2023-02-10T09:55:30.180Z,38.20
2023-02-10T09:58:24.602Z,40.45
2023-02-10T10:01:02.745Z,38.63
2023-02-10T10:03:59.761Z,40.05
2023-02-10T10:06:39.640Z,42.22
2023-02-10T10:09:26.688Z,37.60
2023-02-10T10:11:55.660Z,40.72
2023-02-10T10:14:28.571Z,43.08
2023-02-10T10:16:56.608Z,34.25
2023-02-10T10:20:02.256Z,42.70
2023-02-10T10:23:01.834Z,44.53
2023-02-10T10:26:05.789Z,46.92
2023-02-10T10:28:54.593Z,47.22
2023-02-10T10:31:30.412Z,45.53
2023-02-10T10:34:16.333Z,46.38
2023-02-10T10:36:47.165Z,50.47
2023-02-10T10:39:49.239Z,51.60
2023-02-10T10:42:22.419Z,44.05
2023-02-10T10:44:51.301Z,42.08
2023-02-10T10:47:47.440Z,40.97
2023-02-10T10:50:20.917Z,40.38
2023-02-10T10:52:53.354Z,42.28
2023-02-10T10:55:29.278Z,46.92
2023-02-10T10:58:05.280Z,46.58
2023-02-10T11:00:36.642Z,46.65
2023-02-10T11:03:06.662Z,40.55
2023-02-10T11:05:38.612Z,41.50
2023-02-10T11:08:07.773Z,44.03
2023-02-10T11:10:55.101Z,44.58
2023-02-10T11:13:29.057Z,41.28
2023-02-10T11:16:26.171Z,34.45
2023-02-10T11:19:00.831Z,38.00
2023-02-10T11:21:38.979Z,41.67
2023-02-10T11:24:20.209Z,39.15
2023-02-10T11:27:05.308Z,43.17
2023-02-10T11:29:35.468Z,40.00
2023-02-10T11:32:03.035Z,41.53
2023-02-10T11:34:39.524Z,40.95
2023-02-10T11:37:20.737Z,37.67
2023-02-10T11:39:48.729Z,43.80
2023-02-10T11:42:24.226Z,50.10
2023-02-10T11:45:16.474Z,37.97
2023-02-10T11:47:47.426Z,33.97
2023-02-10T11:50:26.689Z,42.13
2023-02-10T11:52:54.264Z,39.90
2023-02-10T11:55:28.687Z,41.35
2023-02-10T12:01:10.744Z,33.47
2023-02-10T12:03:56.844Z,37.35
2023-02-10T12:06:59.468Z,36.33
2023-02-10T12:09:37.549Z,38.53
2023-02-10T12:12:16.832Z,38.90
2023-02-10T12:14:53.315Z,40.90
2023-02-10T12:17:38.651Z,38.17
2023-02-10T12:20:08.606Z,37.13
2023-02-10T12:23:03.906Z,39.90
2023-02-10T12:25:50.010Z,43.50
2023-02-10T12:28:43.482Z,39.20
2023-02-10T12:31:29.433Z,48.60
2023-02-10T12:34:11.714Z,41.05
2023-02-10T12:36:41.981Z,44.03
2023-02-10T12:39:24.051Z,39.63
2023-02-10T12:42:06.139Z,46.65
2023-02-10T12:44:42.072Z,43.03
2023-02-10T12:47:12.674Z,41.45
2023-02-10T12:49:49.077Z,44.50
2023-02-10T12:52:40.805Z,39.08
2023-02-10T12:55:11.319Z,45.05
2023-02-10T12:58:00.257Z,43.55
2023-02-10T13:00:37.136Z,41.58
2023-02-10T13:03:10.174Z,38.88
2023-02-10T13:05:44.819Z,38.97
2023-02-10T13:08:35.082Z,41.47
2023-02-10T13:11:34.109Z,38.47
2023-02-10T13:14:17.858Z,40.05
2023-02-10T13:16:55.650Z,35.90
2023-02-10T13:19:40.696Z,37.38
2023-02-10T13:22:18.609Z,32.90
2023-02-10T13:24:59.691Z,32.70
2023-02-10T13:27:30.102Z,31.05
2023-02-10T13:30:22.725Z,30.65
2023-02-10T13:32:55.765Z,27.65
2023-02-10T13:35:26.532Z,29.02
2023-02-10T13:37:56.229Z,28.27
2023-02-10T13:40:34.467Z,28.35
2023-02-10T13:43:04.997Z,26.23
2023-02-10T13:45:35.582Z,30.75
2023-02-10T13:48:29.223Z,26.13
2023-02-10T13:51:08.564Z,23.88
2023-02-10T13:53:35.851Z,24.25
2023-02-10T13:56:05.176Z,23.90
2023-02-10T13:58:34.686Z,24.45
2023-02-10T14:01:03.036Z,23.35
2023-02-10T14:03:34.276Z,24.73
2023-02-10T14:06:13.827Z,25.08
2023-02-10T14:08:59.779Z,24.80
2023-02-10T14:11:43.194Z,27.17
2023-02-10T14:14:28.630Z,24.45
2023-02-10T14:17:08.634Z,27.05
2023-02-10T14:19:43.360Z,27.92
2023-02-10T14:22:39.525Z,29.38
2023-02-10T14:25:24.575Z,34.75
2023-02-10T14:27:55.850Z,21.05
2023-02-10T14:30:39.241Z,28.60
2023-02-10T14:33:19.042Z,22.13
2023-02-10T14:35:51.638Z,24.42
2023-02-10T14:38:31.194Z,29.17
2023-02-10T14:41:08.840Z,30.42
2023-02-10T14:43:43.166Z,23.08
2023-02-10T14:46:19.414Z,27.33
2023-02-10T14:48:47.057Z,33.85
2023-02-10T14:51:23.971Z,24.55
2023-02-10T14:53:51.460Z,22.90
2023-02-10T14:56:29.398Z,25.73
2023-02-10T14:58:56.813Z,24.75
2023-02-10T15:01:28.835Z,24.83
2023-02-10T15:03:58.665Z,29.05
2023-02-10T15:06:30.724Z,23.70
2023-02-10T15:09:04.661Z,28.65
2023-02-10T15:12:15.296Z,29.23
2023-02-10T15:14:44.689Z,28.27
2023-02-10T15:17:21.734Z,22.13
2023-02-10T15:20:00.377Z,28.55
2023-02-10T15:22:33.658Z,22.05
2023-02-10T15:25:39.298Z,20.20
2023-02-10T15:30:43.427Z,22.15
2023-02-10T15:33:24.504Z,25.65
2023-02-10T15:36:04.813Z,26.77
2023-02-10T15:38:32.963Z,27.20
2023-02-10T15:41:00.175Z,25.33
2023-02-10T15:43:32.587Z,25.48
2023-02-10T15:46:19.806Z,24.67
2023-02-10T15:48:47.152Z,25.77
2023-02-10T15:51:25.582Z,24.20
2023-02-10T15:53:58.197Z,27.67
2023-02-10T15:56:25.880Z,29.23
2023-02-10T15:58:53.469Z,26.73
2023-02-10T16:01:20.795Z,24.50
2023-02-10T16:03:48.078Z,33.53
2023-02-10T16:06:17.243Z,25.02
2023-02-10T16:08:45.604Z,27.52
2023-02-10T16:11:13.678Z,27.42
2023-02-10T16:13:40.942Z,29.23
2023-02-10T16:16:16.183Z,26.08
2023-02-10T16:18:44.123Z,26.90
2023-02-10T16:21:15.024Z,28.30
2023-02-10T16:23:43.059Z,29.65
2023-02-10T16:26:23.035Z,27.58
2023-02-10T16:28:51.378Z,28.08
2023-02-10T16:31:22.552Z,30.50
2023-02-10T16:33:50.564Z,30.17
2023-02-10T16:36:18.725Z,30.13
2023-02-10T16:38:51.145Z,33.88
2023-02-10T16:41:20.056Z,33.80
2023-02-10T16:43:47.429Z,42.28
2023-02-10T16:46:16.750Z,33.58
2023-02-10T16:48:44.089Z,42.60
2023-02-10T16:51:11.222Z,46.03
2023-02-10T16:53:38.576Z,39.08
2023-02-10T16:56:06.612Z,37.53
2023-02-10T16:58:34.219Z,36.63
2023-02-10T17:01:01.830Z,38.30
2023-02-10T17:03:35.457Z,32.13
2023-02-10T17:06:02.734Z,56.53
2023-02-10T17:08:29.941Z,61.58
2023-02-10T17:10:57.330Z,61.50
2023-02-10T17:13:27.894Z,65.00
2023-02-10T17:15:55.579Z,76.65
2023-02-10T17:18:23.127Z,65.95
2023-02-10T17:20:50.676Z,61.35
2023-02-10T17:23:21.333Z,51.78
2023-02-10T17:25:49.308Z,58.40
2023-02-10T17:28:18.158Z,53.42
2023-02-10T17:30:47.075Z,58.13
2023-02-10T17:33:25.633Z,63.35
2023-02-10T17:35:53.178Z,56.03
2023-02-10T17:38:38.838Z,64.95
2023-02-10T17:41:08.465Z,60.05
2023-02-10T17:43:39.018Z,60.78
2023-02-10T17:46:06.273Z,60.72
2023-02-10T17:48:33.615Z,65.43
2023-02-10T17:51:04.878Z,65.80
2023-02-10T17:53:36.495Z,67.78
2023-02-10T17:56:04.127Z,68.78
2023-02-10T17:58:33.204Z,75.43
2023-02-10T18:01:00.884Z,72.57
2023-02-10T18:03:28.427Z,69.20
2023-02-10T18:05:57.307Z,75.55
2023-02-10T18:08:24.493Z,101.85
2023-02-10T18:10:51.968Z,99.45
2023-02-10T18:13:19.626Z,101.05
2023-02-10T18:15:47.161Z,113.35
2023-02-10T18:18:14.828Z,113.57
2023-02-10T18:20:44.638Z,120.15
2023-02-10T18:23:15.186Z,114.22
2023-02-10T18:25:44.690Z,103.25
2023-02-10T18:28:12.812Z,104.40
2023-02-10T18:30:40.598Z,89.03
2023-02-10T18:33:07.880Z,106.38
2023-02-10T18:35:36.169Z,106.68
2023-02-10T18:38:08.179Z,114.75
2023-02-10T18:40:37.599Z,104.35
2023-02-10T18:43:05.197Z,99.65
2023-02-10T18:45:32.605Z,122.95
2023-02-10T18:47:59.938Z,101.20
2023-02-10T18:50:27.094Z,100.80
2023-02-10T18:52:55.553Z,88.82
2023-02-10T18:55:22.886Z,92.63
2023-02-10T18:57:50.095Z,96.10
2023-02-10T19:00:17.781Z,96.13
2023-02-10T19:02:56.332Z,90.97
2023-02-10T19:05:24.292Z,99.80
2023-02-10T19:07:53.597Z,95.80
2023-02-10T19:10:24.109Z,99.78
2023-02-10T19:12:52.110Z,113.85
2023-02-10T19:15:19.432Z,119.82
2023-02-10T19:17:47.222Z,107.05
2023-02-10T19:20:14.634Z,85.47
2023-02-10T19:22:41.906Z,96.50
2023-02-10T19:25:09.439Z,111.50
2023-02-10T19:27:36.858Z,104.43
2023-02-10T19:30:04.521Z,116.35
2023-02-10T19:32:31.699Z,128.25
2023-02-10T19:34:58.938Z,106.22
2023-02-10T19:37:26.273Z,113.10
2023-02-10T19:39:53.543Z,102.93
2023-02-10T19:42:20.806Z,89.07
2023-02-10T19:44:48.730Z,97.90
2023-02-10T19:47:16.021Z,103.68
2023-02-10T19:49:43.278Z,118.22
2023-02-10T19:52:10.523Z,93.32
2023-02-10T19:54:37.750Z,94.85
2023-02-10T19:57:05.128Z,118.32
2023-02-10T19:59:32.411Z,148.32
2023-02-10T20:01:59.693Z,110.68
2023-02-10T20:04:26.976Z,105.53
2023-02-10T20:06:54.382Z,112.75
2023-02-10T20:09:21.762Z,100.75
2023-02-10T20:11:49.088Z,107.60
2023-02-10T20:14:16.318Z,131.75
2023-02-10T20:16:45.592Z,133.48
2023-02-10T20:19:15.107Z,159.40
2023-02-10T20:21:42.957Z,211.48
2023-02-10T20:24:10.688Z,96.57
2023-02-10T20:26:39.068Z,106.13
2023-02-10T20:29:07.391Z,207.50
2023-02-10T20:31:34.744Z,173.15
2023-02-10T20:34:01.996Z,117.60
2023-02-10T20:36:29.457Z,119.32
2023-02-10T20:39:01.721Z,155.85
2023-02-10T20:41:28.969Z,165.55
2023-02-10T20:43:56.415Z,189.43
2023-02-10T20:46:27.703Z,167.68
2023-02-10T20:48:55.046Z,200.07
2023-02-10T20:51:22.338Z,201.00
2023-02-10T20:53:51.720Z,159.30
2023-02-10T20:56:20.103Z,186.10
2023-02-10T20:58:48.170Z,153.52
2023-02-10T21:01:17.466Z,151.98
2023-02-10T21:03:45.273Z,109.18
2023-02-10T21:06:23.316Z,117.65
2023-02-10T21:08:53.516Z,143.40
2023-02-10T21:11:23.183Z,132.57
2023-02-10T21:13:50.925Z,147.85
2023-02-10T21:16:19.715Z,157.70
2023-02-10T21:18:47.424Z,139.60
2023-02-10T21:21:16.435Z,162.68
2023-02-10T21:23:43.892Z,148.27
2023-02-10T21:26:11.729Z,202.27
2023-02-10T21:28:48.182Z,159.13
2023-02-10T21:31:22.895Z,103.65
2023-02-10T21:33:50.402Z,102.80
2023-02-10T21:36:23.997Z,103.18
2023-02-10T21:38:51.586Z,108.53
2023-02-10T21:41:40.121Z,110.20
2023-02-10T21:44:17.772Z,110.25
2023-02-10T21:46:47.875Z,142.50
2023-02-10T21:49:16.722Z,182.88
2023-02-10T21:51:44.540Z,124.82
2023-02-10T21:54:13.213Z,102.35
2023-02-10T21:56:41.256Z,104.07
2023-02-10T21:59:09.603Z,100.78
2023-02-10T22:01:37.300Z,99.03
2023-02-10T22:04:05.744Z,96.00
2023-02-10T22:06:34.617Z,107.45
2023-02-10T22:09:02.818Z,100.03
2023-02-10T22:11:30.057Z,109.25
2023-02-10T22:13:57.307Z,123.15
2023-02-10T22:16:24.739Z,102.28
2023-02-10T22:18:51.977Z,108.10
2023-02-10T22:21:25.050Z,164.18
2023-02-10T22:23:52.289Z,162.68
2023-02-10T22:26:21.658Z,118.85
2023-02-10T22:28:50.412Z,129.52
2023-02-10T22:31:26.537Z,135.32
2023-02-10T22:33:57.211Z,143.98
2023-02-10T22:36:25.690Z,143.57
2023-02-10T22:38:53.782Z,138.18
2023-02-10T22:41:24.030Z,109.75
2023-02-10T22:43:51.429Z,131.00
2023-02-10T22:46:18.927Z,136.82
2023-02-10T22:48:49.901Z,132.38
2023-02-10T22:51:26.381Z,105.47
2023-02-10T22:54:14.244Z,120.20
2023-02-10T22:56:42.954Z,120.07
2023-02-10T22:59:12.210Z,120.28
2023-02-10T23:01:42.692Z,128.40
2023-02-10T23:04:12.705Z,118.47
2023-02-10T23:06:40.595Z,120.05
2023-02-10T23:09:09.534Z,126.07
2023-02-10T23:11:40.298Z,120.95
2023-02-10T23:14:07.592Z,124.93
2023-02-10T23:16:34.875Z,120.57
2023-02-10T23:19:02.112Z,122.38
2023-02-10T23:21:29.499Z,117.97
2023-02-10T23:23:57.191Z,120.05
2023-02-10T23:26:28.076Z,145.40
2023-02-10T23:28:57.730Z,145.55
2023-02-10T23:31:25.704Z,133.88
2023-02-10T23:33:56.715Z,130.40
2023-02-10T23:36:24.932Z,141.30
2023-02-10T23:38:52.902Z,127.93
2023-02-10T23:41:21.266Z,122.10
2023-02-10T23:43:48.589Z,120.07
2023-02-10T23:46:16.646Z,132.27
2023-02-10T23:48:44.921Z,131.68
2023-02-10T23:51:15.967Z,120.47
2023-02-10T23:53:44.097Z,124.00
2023-02-10T23:56:14.212Z,121.20
2023-02-10T23:58:41.922Z,121.07
